createdAt,value
2022-10-18T00:00:23.550Z,51.45
2022-10-18T00:02:58.180Z,49.17
2022-10-18T00:05:56.363Z,51.13
2022-10-18T00:08:24.307Z,47.60
2022-10-18T00:10:54.019Z,51.63
2022-10-18T00:13:30.635Z,47.65
2022-10-18T00:16:37.489Z,47.83
2022-10-18T00:19:07.338Z,48.42
2022-10-18T00:24:35.226Z,55.38
2022-10-18T00:28:13.953Z,54.45
2022-10-18T00:30:41.539Z,51.90
2022-10-18T00:33:21.233Z,52.85
2022-10-18T00:40:04.933Z,50.88
2022-10-18T00:42:51.183Z,52.28
2022-10-18T00:45:24.303Z,53.08
2022-10-18T00:48:07.029Z,52.10
2022-10-18T00:50:35.516Z,50.13
2022-10-18T00:53:23.008Z,48.53
2022-10-18T00:55:57.038Z,48.70
2022-10-18T00:58:27.233Z,49.05
2022-10-18T01:01:32.266Z,51.80
2022-10-18T01:04:27.449Z,50.20
2022-10-18T01:07:36.738Z,48.13
2022-10-18T01:10:28.569Z,44.03
2022-10-18T01:13:16.962Z,42.33
2022-10-18T01:15:57.678Z,51.75
2022-10-18T01:19:16.836Z,45.15
2022-10-18T01:22:02.927Z,44.92
2022-10-18T01:25:46.376Z,46.55
2022-10-18T01:28:56.294Z,42.08
2022-10-18T01:31:38.444Z,40.75
2022-10-18T01:34:17.671Z,40.85
2022-10-18T01:36:54.958Z,37.75
2022-10-18T01:39:28.842Z,36.25
2022-10-18T01:41:58.498Z,36.58
2022-10-18T01:44:34.820Z,32.13
2022-10-18T01:47:06.352Z,38.10
2022-10-18T01:57:00.378Z,34.28
2022-10-18T01:59:58.108Z,32.85
2022-10-18T02:03:38.194Z,33.47
2022-10-18T02:06:31.895Z,32.60
2022-10-18T02:09:13.933Z,33.78
2022-10-18T02:15:26.265Z,33.65
2022-10-18T02:18:16.561Z,37.05
2022-10-18T02:20:57.891Z,33.13
2022-10-18T02:27:43.608Z,32.70
2022-10-18T02:30:14.549Z,32.92
2022-10-18T02:33:29.714Z,34.55
2022-10-18T02:36:04.819Z,33.78
2022-10-18T02:38:35.408Z,35.55
2022-10-18T02:41:07.717Z,39.13
2022-10-18T02:51:57.693Z,33.58
2022-10-18T03:03:06.149Z,33.45
2022-10-18T03:05:36.988Z,33.65
2022-10-18T03:08:04.828Z,33.22
2022-10-18T03:10:35.876Z,32.40
2022-10-18T03:15:55.425Z,35.15
2022-10-18T03:27:07.243Z,33.75
2022-10-18T03:29:37.196Z,37.40
2022-10-18T03:35:47.530Z,34.90
2022-10-18T03:38:15.144Z,40.00
2022-10-18T03:45:09.439Z,36.72
2022-10-18T03:47:37.061Z,34.17
2022-10-18T03:50:16.220Z,36.53
2022-10-18T03:52:46.180Z,32.63
2022-10-18T03:55:25.886Z,33.42
2022-10-18T03:57:55.708Z,32.95
2022-10-18T04:03:35.263Z,35.90
2022-10-18T04:06:03.638Z,31.67
2022-10-18T04:08:42.859Z,33.30
2022-10-18T04:11:15.247Z,34.17
2022-10-18T04:13:50.333Z,36.15
2022-10-18T04:16:17.846Z,37.38
2022-10-18T04:18:47.568Z,39.25
2022-10-18T04:21:27.078Z,37.20
2022-10-18T04:23:54.539Z,35.38
2022-10-18T04:26:49.172Z,35.45
2022-10-18T04:29:38.514Z,34.85
2022-10-18T04:32:06.162Z,34.58
2022-10-18T04:34:36.121Z,39.13
2022-10-18T04:37:25.579Z,36.55
2022-10-18T04:39:55.975Z,36.92
2022-10-18T04:42:23.957Z,34.90
2022-10-18T04:46:16.639Z,38.40
2022-10-18T04:49:08.549Z,36.65
2022-10-18T04:52:01.207Z,34.30
2022-10-18T04:55:09.554Z,36.67
2022-10-18T04:57:36.950Z,33.65
2022-10-18T05:00:05.048Z,36.92
2022-10-18T05:02:34.026Z,37.17
2022-10-18T05:05:13.944Z,37.92
2022-10-18T05:08:21.499Z,38.50
2022-10-18T05:10:48.864Z,36.45
2022-10-18T05:13:16.831Z,34.05
2022-10-18T05:15:46.258Z,36.67
2022-10-18T05:18:38.542Z,37.47
2022-10-18T05:21:06.213Z,35.28
2022-10-18T05:23:37.796Z,37.03
2022-10-18T05:26:08.630Z,32.92
2022-10-18T05:28:57.090Z,37.53
2022-10-18T05:31:50.286Z,34.03
2022-10-18T05:34:37.557Z,32.63
2022-10-18T05:37:08.681Z,35.78
2022-10-18T05:40:26.109Z,34.72
2022-10-18T05:43:05.272Z,35.63
2022-10-18T05:45:36.044Z,37.80
2022-10-18T05:48:11.104Z,37.25
2022-10-18T05:50:40.346Z,39.00
2022-10-18T05:57:07.257Z,37.80
2022-10-18T05:59:37.893Z,44.30
2022-10-18T06:02:06.973Z,39.95
2022-10-18T06:04:36.485Z,35.15
2022-10-18T06:07:12.300Z,33.08
2022-10-18T06:09:39.805Z,37.88
2022-10-18T06:12:08.960Z,36.58
2022-10-18T06:18:57.801Z,34.30
2022-10-18T06:25:40.227Z,39.05
2022-10-18T06:28:10.129Z,37.47
2022-10-18T06:30:38.879Z,32.45
2022-10-18T06:33:06.080Z,38.13
2022-10-18T06:35:33.517Z,35.47
2022-10-18T06:39:00.318Z,32.33
2022-10-18T06:44:41.276Z,81.00
2022-10-18T06:47:11.634Z,78.97
2022-10-18T06:49:39.107Z,68.60
2022-10-18T06:56:28.786Z,46.47
2022-10-18T07:03:16.358Z,49.95
2022-10-18T07:06:38.833Z,84.70
2022-10-18T07:09:07.080Z,63.45
2022-10-18T07:12:09.567Z,67.55
2022-10-18T07:14:46.439Z,59.38
2022-10-18T07:17:13.787Z,47.22
2022-10-18T07:20:07.313Z,43.25
2022-10-18T07:22:38.110Z,45.70
2022-10-18T07:25:09.516Z,37.17
2022-10-18T07:27:48.576Z,39.10
2022-10-18T07:30:16.098Z,36.40
2022-10-18T07:32:43.401Z,40.10
2022-10-18T07:37:38.866Z,50.85
2022-10-18T07:40:06.695Z,33.60
2022-10-18T07:42:38.615Z,34.33
2022-10-18T07:45:06.090Z,35.17
2022-10-18T07:47:35.245Z,37.03
2022-10-18T07:50:06.084Z,33.88
2022-10-18T07:52:36.094Z,37.65
2022-10-18T07:55:09.468Z,33.78
2022-10-18T07:57:36.745Z,37.08
2022-10-18T08:00:08.922Z,30.35
2022-10-18T08:03:29.642Z,32.63
2022-10-18T08:05:57.208Z,30.63
2022-10-18T08:08:28.576Z,31.33
2022-10-18T08:11:01.505Z,32.08
2022-10-18T08:13:29.792Z,30.02
2022-10-18T08:16:02.541Z,32.05
2022-10-18T08:18:29.862Z,30.30
2022-10-18T08:21:03.758Z,31.30
2022-10-18T08:23:56.462Z,36.83
2022-10-18T08:26:26.950Z,35.85
2022-10-18T08:29:46.671Z,31.20
2022-10-18T08:32:16.418Z,35.30
2022-10-18T08:34:43.914Z,31.08
2022-10-18T08:37:13.890Z,42.17
2022-10-18T08:39:41.216Z,36.65
2022-10-18T08:50:38.883Z,37.55
2022-10-18T09:00:24.281Z,32.88
2022-10-18T09:03:55.915Z,33.75
2022-10-18T09:06:28.688Z,36.13
2022-10-18T09:13:27.789Z,31.27
2022-10-18T09:24:37.128Z,33.88
2022-10-18T09:27:18.898Z,38.20
2022-10-18T09:34:20.698Z,35.75
2022-10-18T09:41:19.816Z,34.38
2022-10-18T09:44:00.679Z,37.75
2022-10-18T09:51:05.553Z,33.95
2022-10-18T09:53:59.004Z,34.13
2022-10-18T10:09:28.820Z,31.60
2022-10-18T10:11:59.321Z,29.00
2022-10-18T10:34:42.366Z,28.45
2022-10-18T10:41:56.689Z,28.95
2022-10-18T10:48:33.358Z,28.70
2022-10-18T10:52:08.516Z,30.38
2022-10-18T10:57:52.789Z,24.17
2022-10-18T11:00:38.363Z,25.15
2022-10-18T11:03:30.075Z,21.10
2022-10-18T11:06:08.681Z,18.75
2022-10-18T11:17:18.661Z,21.02
2022-10-18T11:22:45.345Z,16.73
2022-10-18T11:37:38.262Z,16.50
2022-10-18T11:40:29.135Z,19.30
2022-10-18T11:43:38.870Z,15.52
2022-10-18T11:46:56.611Z,17.00
2022-10-18T11:49:39.072Z,14.27
2022-10-18T11:52:46.766Z,14.88
2022-10-18T11:55:35.271Z,12.93
2022-10-18T12:01:46.845Z,15.43
2022-10-18T12:04:48.894Z,18.08
2022-10-18T12:11:10.985Z,21.63
2022-10-18T12:25:20.410Z,29.83
2022-10-18T12:30:48.891Z,29.95
2022-10-18T12:34:27.377Z,29.83
2022-10-18T12:41:29.327Z,32.13
2022-10-18T12:44:27.480Z,45.08
2022-10-18T12:46:59.886Z,36.08
2022-10-18T12:49:38.193Z,36.53
2022-10-18T13:06:46.646Z,35.42
2022-10-18T13:09:20.323Z,42.80
2022-10-18T13:21:56.929Z,39.17
2022-10-18T13:35:29.695Z,50.40
2022-10-18T13:41:31.321Z,41.90
2022-10-18T13:44:37.710Z,45.65
2022-10-18T13:55:31.784Z,47.95
2022-10-18T14:02:49.784Z,50.27
2022-10-18T14:05:48.289Z,47.70
2022-10-18T14:09:14.231Z,49.50
2022-10-18T14:12:13.306Z,52.30
2022-10-18T14:14:56.626Z,49.72
2022-10-18T14:17:43.615Z,51.47
2022-10-18T14:20:29.948Z,53.63
2022-10-18T14:24:24.331Z,54.85
2022-10-18T14:26:48.134Z,49.80
2022-10-18T14:29:20.214Z,44.38
2022-10-18T14:31:57.973Z,56.42
2022-10-18T14:34:44.926Z,56.85
2022-10-18T14:37:39.017Z,53.65
2022-10-18T14:40:06.683Z,51.05
2022-10-18T14:42:48.765Z,51.47
2022-10-18T14:45:21.272Z,53.22
2022-10-18T14:47:50.699Z,59.17
2022-10-18T14:50:30.464Z,55.10
2022-10-18T14:53:04.049Z,54.42
2022-10-18T14:55:53.553Z,55.10
2022-10-18T14:58:52.338Z,59.60
2022-10-18T15:05:10.587Z,63.22
2022-10-18T15:07:38.212Z,48.63
2022-10-18T15:14:07.268Z,59.13
2022-10-18T15:16:39.043Z,55.50
2022-10-18T15:23:21.469Z,47.17
2022-10-18T15:33:23.247Z,53.53
2022-10-18T15:38:37.511Z,49.55
2022-10-18T15:41:39.509Z,51.92
2022-10-18T15:47:29.742Z,43.90
2022-10-18T15:50:00.638Z,48.47
2022-10-18T16:01:05.224Z,51.67
2022-10-18T16:04:10.262Z,47.70
2022-10-18T16:09:58.402Z,59.58
2022-10-18T16:12:27.894Z,58.42
2022-10-18T16:15:20.448Z,62.75
2022-10-18T16:18:28.388Z,66.30
2022-10-18T16:21:03.044Z,49.55
2022-10-18T16:23:32.755Z,61.55
2022-10-18T16:29:48.615Z,69.50
2022-10-18T16:32:18.505Z,71.55
2022-10-18T16:38:50.297Z,77.65
2022-10-18T16:44:58.550Z,75.10
2022-10-18T16:47:33.052Z,67.70
2022-10-18T16:53:53.406Z,64.90
2022-10-18T16:56:30.613Z,67.93
2022-10-18T16:59:09.477Z,71.15
2022-10-18T17:01:36.782Z,67.07
2022-10-18T17:04:05.609Z,62.50
2022-10-18T17:06:33.485Z,64.18
2022-10-18T17:13:06.934Z,70.35
2022-10-18T17:15:35.183Z,64.93
2022-10-18T17:18:27.822Z,65.63
2022-10-18T17:21:08.492Z,67.53
2022-10-18T17:24:49.666Z,66.45
2022-10-18T17:27:26.974Z,67.05
2022-10-18T17:29:59.225Z,66.20
2022-10-18T17:32:48.610Z,68.93
2022-10-18T17:38:01.964Z,64.78
2022-10-18T17:41:39.531Z,72.53
2022-10-18T17:47:20.324Z,62.00
2022-10-18T17:50:41.416Z,67.47
2022-10-18T17:53:09.620Z,64.53
2022-10-18T17:56:02.512Z,64.82
2022-10-18T17:59:01.344Z,67.93
2022-10-18T18:01:28.751Z,59.50
2022-10-18T18:04:04.295Z,63.83
2022-10-18T18:06:40.914Z,65.18
2022-10-18T18:09:11.256Z,61.85
2022-10-18T18:11:41.059Z,62.13
2022-10-18T18:15:02.500Z,67.57
2022-10-18T18:18:23.347Z,65.22
2022-10-18T18:20:54.566Z,61.90
2022-10-18T18:23:28.323Z,66.73
2022-10-18T18:26:01.274Z,61.67
2022-10-18T18:28:28.737Z,65.32
2022-10-18T18:30:57.455Z,59.17
2022-10-18T18:36:01.214Z,63.22
2022-10-18T18:38:28.645Z,62.83
2022-10-18T18:41:23.669Z,63.10
2022-10-18T18:43:59.079Z,64.75
2022-10-18T18:46:38.708Z,71.72
2022-10-18T18:49:10.208Z,64.68
2022-10-18T18:51:40.057Z,64.00
2022-10-18T18:54:09.072Z,64.80
2022-10-18T18:56:37.208Z,64.65
2022-10-18T18:59:10.862Z,69.85
2022-10-18T19:02:48.259Z,64.63
2022-10-18T19:05:48.141Z,61.38
2022-10-18T19:08:18.025Z,63.05
2022-10-18T19:10:51.854Z,66.32
2022-10-18T19:13:20.682Z,68.80
2022-10-18T19:15:47.922Z,73.47
2022-10-18T19:20:25.665Z,71.38
2022-10-18T19:21:51.235Z,68.53
2022-10-18T19:24:19.619Z,72.60
2022-10-18T19:26:58.963Z,71.78
2022-10-18T19:30:01.171Z,71.15
2022-10-18T19:36:22.500Z,71.63
2022-10-18T19:38:49.874Z,73.68
2022-10-18T19:41:17.149Z,73.82
2022-10-18T19:43:44.437Z,76.07
2022-10-18T19:46:12.037Z,73.47
2022-10-18T19:48:39.722Z,71.90
2022-10-18T19:51:09.548Z,80.63
2022-10-18T19:53:38.329Z,78.30
2022-10-18T19:56:09.658Z,74.70
2022-10-18T19:58:36.997Z,76.63
2022-10-18T20:01:04.603Z,76.70
2022-10-18T20:06:18.396Z,75.97
2022-10-18T20:08:49.858Z,78.22
2022-10-18T20:15:00.945Z,76.60
2022-10-18T20:17:31.059Z,78.85
2022-10-18T20:20:01.800Z,79.38
2022-10-18T20:22:32.434Z,78.32
2022-10-18T20:25:00.014Z,77.82
2022-10-18T20:27:27.273Z,81.93
2022-10-18T20:29:54.525Z,77.57
2022-10-18T20:32:21.801Z,77.40
2022-10-18T20:34:51.525Z,74.20
2022-10-18T20:37:20.927Z,76.55
2022-10-18T20:39:48.374Z,75.32
2022-10-18T20:42:15.694Z,73.43
2022-10-18T20:44:45.850Z,82.43
2022-10-18T20:47:13.214Z,76.65
2022-10-18T21:05:36.999Z,76.20
2022-10-18T21:08:25.007Z,81.00
2022-10-18T21:10:55.855Z,75.22
2022-10-18T21:13:23.581Z,80.38
2022-10-18T21:16:23.590Z,76.07
2022-10-18T21:18:50.870Z,81.28
2022-10-18T21:25:29.138Z,83.88
2022-10-18T21:28:25.375Z,84.75
2022-10-18T21:30:52.755Z,79.85
2022-10-18T21:33:24.074Z,79.63
2022-10-18T21:35:51.424Z,76.63
2022-10-18T21:38:18.662Z,79.63
2022-10-18T21:40:46.617Z,74.75
2022-10-18T21:43:15.415Z,70.57
2022-10-18T21:45:44.263Z,77.18
2022-10-18T21:48:11.651Z,75.07
2022-10-18T21:50:39.397Z,66.75
2022-10-18T21:53:29.849Z,73.63
2022-10-18T21:56:00.026Z,75.72
2022-10-18T21:58:40.453Z,71.28
2022-10-18T22:01:16.317Z,73.50
2022-10-18T22:06:20.794Z,74.20
2022-10-18T22:08:51.547Z,70.97
2022-10-18T22:16:07.687Z,74.07
2022-10-18T22:18:45.992Z,76.68
2022-10-18T22:21:41.545Z,73.55
2022-10-18T22:24:30.707Z,71.38
2022-10-18T22:26:59.166Z,70.47
2022-10-18T22:29:26.675Z,74.13
2022-10-18T22:32:33.232Z,71.03
2022-10-18T22:35:00.642Z,72.07
2022-10-18T22:37:38.916Z,72.25
2022-10-18T22:40:06.953Z,72.80
2022-10-18T22:45:55.116Z,69.28
2022-10-18T22:48:22.485Z,68.30
2022-10-18T22:50:49.817Z,76.55
2022-10-18T22:53:18.507Z,74.85
2022-10-18T22:55:52.004Z,73.93
2022-10-18T22:58:20.397Z,74.25
2022-10-18T23:00:50.230Z,73.20
2022-10-18T23:03:47.687Z,74.65
2022-10-18T23:06:38.131Z,74.40
2022-10-18T23:09:11.030Z,78.45
2022-10-18T23:11:39.284Z,71.53
2022-10-18T23:14:10.142Z,74.47
2022-10-18T23:16:38.936Z,72.88
2022-10-18T23:19:06.412Z,74.63
2022-10-18T23:21:38.663Z,75.13
2022-10-18T23:24:13.487Z,72.47
2022-10-18T23:26:52.918Z,75.55
2022-10-18T23:32:14.776Z,74.43
2022-10-18T23:34:52.824Z,77.22
2022-10-18T23:37:49.636Z,79.80
2022-10-18T23:40:30.588Z,74.53
2022-10-18T23:42:59.490Z,77.68
2022-10-18T23:45:39.034Z,79.35
2022-10-18T23:48:38.876Z,76.60
2022-10-18T23:51:49.277Z,73.68
2022-10-18T23:54:16.531Z,77.45
2022-10-18T23:56:52.971Z,76.75
2022-10-18T23:59:20.667Z,76.00
